Time;durP1;ratioP1;P1;durP2;ratioP2;P2;SDS_P1;SDS_P2;PMS_P1;PMS_P2;Temp;Humidity;BMP_temperature;BMP_pressure;BME280_temperature;BME280_humidity;BME280_pressure;Samples;Min_cycle;Max_cycle;Signal;HPM_P1;HPM_P2
2022/12/13 00:01:50;;;;;;;23.40;12.33;;;-0.20;52.60;;;;;;4901119;29;20470;-86
2022/12/13 00:04:19;;;;;;;28.70;14.70;;;-0.10;52.60;;;;;;4905008;29;20490;-87
2022/12/13 00:06:46;;;;;;;28.43;14.60;;;0.10;52.40;;;;;;4912692;29;21957;-86
2022/12/13 00:09:15;;;;;;;25.93;11.60;;;0.30;51.80;;;;;;4898875;29;21000;-86
2022/12/13 00:11:42;;;;;;;28.30;14.30;;;0.50;50.90;;;;;;4904614;29;20833;-87
2022/12/13 00:14:12;;;;;;;37.03;15.93;;;0.00;50.40;;;;;;4896869;29;21024;-86
2022/12/13 00:16:40;;;;;;;43.50;17.83;;;-0.30;51.40;;;;;;4901652;29;20462;-87
2022/12/13 00:19:07;;;;;;;32.57;14.80;;;-0.20;51.70;;;;;;4897599;29;20848;-86
2022/12/13 00:21:34;;;;;;;28.13;12.43;;;0.00;51.20;;;;;;4883892;29;20777;-86
2022/12/13 00:24:02;;;;;;;28.33;11.37;;;0.00;50.60;;;;;;4911622;29;20510;-86
2022/12/13 00:26:31;;;;;;;32.70;14.07;;;0.10;50.50;;;;;;4882716;29;20469;-83
2022/12/13 00:28:59;;;;;;;20.73;12.20;;;0.20;50.00;;;;;;4888459;29;20454;-87
2022/12/13 00:31:30;;;;;;;26.23;13.30;;;0.30;49.90;;;;;;4914977;29;20454;-88
2022/12/13 00:33:57;;;;;;;36.60;12.27;;;-0.20;50.50;;;;;;4900424;29;20484;-86
2022/12/13 00:36:24;;;;;;;29.70;14.20;;;-0.40;51.00;;;;;;4886515;29;20471;-87
2022/12/13 00:38:59;;;;;;;32.33;12.40;;;-0.50;51.40;;;;;;4914698;29;20462;-86
2022/12/13 00:41:27;;;;;;;29.13;12.50;;;-0.20;51.50;;;;;;4876608;29;20829;-86
2022/12/13 00:43:54;;;;;;;24.53;12.80;;;-0.20;50.90;;;;;;4867525;29;21009;-87
2022/12/13 00:46:22;;;;;;;26.53;13.40;;;-0.10;50.50;;;;;;4932705;29;20839;-86
2022/12/13 00:48:53;;;;;;;26.30;13.07;;;0.00;50.30;;;;;;4904789;29;20454;-87
2022/12/13 00:51:21;;;;;;;29.60;12.50;;;0.10;50.00;;;;;;4894548;29;21054;-86
2022/12/13 00:53:49;;;;;;;28.47;14.70;;;0.30;49.80;;;;;;4898932;29;20483;-86
2022/12/13 00:56:20;;;;;;;22.77;12.40;;;-0.20;49.40;;;;;;4915316;29;20605;-86
2022/12/13 00:58:47;;;;;;;35.20;16.23;;;-0.20;49.90;;;;;;4908980;29;20763;-86
2022/12/13 01:01:16;;;;;;;30.50;13.30;;;-0.10;49.60;;;;;;4914904;29;20470;-84
2022/12/13 01:03:43;;;;;;;32.17;13.03;;;-0.40;50.00;;;;;;4930026;28;20458;-88
2022/12/13 01:06:14;;;;;;;27.03;12.37;;;-0.30;50.30;;;;;;4908688;29;20446;-84
2022/12/13 01:08:41;;;;;;;26.70;12.73;;;-0.20;50.40;;;;;;4915587;29;20448;-86
2022/12/13 01:11:09;;;;;;;29.93;12.07;;;-0.10;50.00;;;;;;4930653;29;20733;-86
2022/12/13 01:13:36;;;;;;;29.07;14.83;;;0.00;50.00;;;;;;4891627;29;20492;-86
2022/12/13 01:16:06;;;;;;;30.43;14.03;;;0.00;49.30;;;;;;4933236;29;20459;-85
2022/12/13 01:18:34;;;;;;;26.77;14.23;;;0.00;49.00;;;;;;4915727;29;20473;-87
2022/12/13 01:21:03;;;;;;;29.50;14.60;;;-0.20;49.10;;;;;;4916373;29;20457;-86
2022/12/13 01:23:32;;;;;;;23.50;12.93;;;-0.30;49.50;;;;;;4877307;29;20482;-86
2022/12/13 01:26:02;;;;;;;26.80;12.53;;;-0.40;50.20;;;;;;4916474;29;20452;-88
2022/12/13 01:28:29;;;;;;;27.60;12.93;;;-0.30;50.40;;;;;;4900885;29;20447;-86
2022/12/13 01:30:57;;;;;;;22.27;12.40;;;-0.30;50.60;;;;;;4884210;29;21060;-88
2022/12/13 01:33:25;;;;;;;27.73;14.13;;;-0.20;50.60;;;;;;4918222;29;20472;-88
2022/12/13 01:35:52;;;;;;;27.60;14.67;;;-0.30;49.60;;;;;;4897086;29;20847;-87
2022/12/13 01:38:20;;;;;;;24.80;12.50;;;-0.40;49.90;;;;;;4871062;29;20480;-86
2022/12/13 01:40:56;;;;;;;23.87;10.97;;;-0.40;49.70;;;;;;4914714;29;20969;-86
2022/12/13 01:43:24;;;;;;;22.13;12.40;;;-0.60;49.40;;;;;;4918219;29;20483;-86
2022/12/13 01:45:51;;;;;;;32.50;14.17;;;-0.70;50.00;;;;;;4911660;29;20526;-86
2022/12/13 01:48:24;;;;;;;23.53;13.00;;;-0.60;50.60;;;;;;4898269;29;20957;-86
2022/12/13 01:50:56;;;;;;;28.03;13.23;;;-0.50;50.40;;;;;;4901487;29;20463;-86
2022/12/13 01:53:27;;;;;;;29.27;13.20;;;-0.60;49.90;;;;;;4899052;29;20471;-85
2022/12/13 01:56:01;;;;;;;28.27;13.30;;;-0.50;49.70;;;;;;4913848;29;20517;-85
2022/12/13 01:58:29;;;;;;;29.67;13.53;;;-0.30;49.20;;;;;;4898793;29;20470;-86
2022/12/13 02:00:58;;;;;;;30.00;12.00;;;-0.30;48.90;;;;;;4884354;29;20448;-85
2022/12/13 02:03:26;;;;;;;29.97;13.70;;;-0.30;49.00;;;;;;4892227;29;21011;-88
2022/12/13 02:05:59;;;;;;;28.90;13.23;;;-0.60;49.20;;;;;;4883506;29;20490;-86
2022/12/13 02:08:27;;;;;;;20.10;12.90;;;-0.80;49.40;;;;;;4929638;29;21049;-85
2022/12/13 02:10:57;;;;;;;25.43;11.50;;;-0.80;49.60;;;;;;4907090;29;20447;-86
2022/12/13 02:13:24;;;;;;;32.17;12.00;;;-0.60;49.40;;;;;;4891857;29;20487;-85
2022/12/13 02:16:06;;;;;;;31.10;12.30;;;-0.60;49.00;;;;;;4906647;29;22217;-85
2022/12/13 02:18:50;;;;;;;27.23;13.43;;;-0.50;49.20;;;;;;4883410;29;20466;-85
2022/12/13 02:21:25;;;;;;;24.67;11.87;;;-0.60;49.00;;;;;;4899735;29;20487;-86
2022/12/13 02:24:24;;;;;;;18.00;11.67;;;-0.80;49.00;;;;;;4874271;29;20660;-86
2022/12/13 02:27:17;;;;;;;41.77;11.77;;;-0.80;49.00;;;;;;4882655;29;20999;-86
2022/12/13 02:30:21;;;;;;;30.87;12.90;;;-0.90;49.30;;;;;;4897571;29;20462;-87
2022/12/13 02:33:35;;;;;;;16.20;8.17;;;-1.00;49.60;;;;;;4913618;29;20479;-86
2022/12/13 02:36:10;;;;;;;14.10;9.73;;;-1.30;50.30;;;;;;4876851;29;20506;-88
2022/12/13 02:38:46;;;;;;;21.03;11.70;;;-1.20;50.40;;;;;;4874703;29;20447;-87
2022/12/13 02:41:19;;;;;;;29.87;12.40;;;-1.10;50.40;;;;;;4916477;29;20458;-88
2022/12/13 02:43:50;;;;;;;25.17;8.87;;;-1.10;50.10;;;;;;4896854;29;20506;-86
2022/12/13 02:46:22;;;;;;;27.83;12.37;;;-1.10;50.80;;;;;;4876424;29;20562;-88
2022/12/13 02:48:52;;;;;;;22.37;12.50;;;-1.10;50.30;;;;;;4885761;29;21017;-87
2022/12/13 02:51:21;;;;;;;23.77;11.37;;;-1.00;50.40;;;;;;4888609;29;20507;-87
2022/12/13 02:53:48;;;;;;;23.70;11.43;;;-0.90;50.30;;;;;;4898444;29;20469;-86
2022/12/13 02:56:15;;;;;;;27.77;12.70;;;-0.70;50.00;;;;;;4913603;29;22349;-88
2022/12/13 02:58:47;;;;;;;23.00;11.70;;;-0.60;49.40;;;;;;4897585;29;20467;-85
2022/12/13 03:01:40;;;;;;;24.63;11.90;;;-0.50;48.80;;;;;;4929781;29;20494;-86
2022/12/13 03:04:13;;;;;;;17.83;9.97;;;-0.40;48.50;;;;;;4889914;29;20480;-86
2022/12/13 03:06:54;;;;;;;30.57;13.20;;;-0.60;48.30;;;;;;4872434;29;21000;-87
2022/12/13 03:09:39;;;;;;;25.67;11.53;;;-0.60;48.20;;;;;;4898152;29;20534;-86
2022/12/13 03:15:12;;;;;;;13.33;6.63;;;-1.00;48.80;;;;;;4913596;29;20448;-87
2022/12/13 03:17:45;;;;;;;21.00;11.47;;;-1.20;48.70;;;;;;4911888;29;20972;-85
2022/12/13 03:20:16;;;;;;;20.20;10.97;;;-1.40;49.60;;;;;;4912227;29;20490;-86
2022/12/13 03:22:43;;;;;;;15.97;9.60;;;-1.30;50.50;;;;;;4880973;29;21017;-86
2022/12/13 03:25:10;;;;;;;23.50;11.50;;;-1.20;49.50;;;;;;4887162;29;20487;-86
2022/12/13 03:27:37;;;;;;;20.17;11.73;;;-1.20;49.40;;;;;;4898376;29;20519;-86
2022/12/13 03:30:05;;;;;;;22.87;8.77;;;-1.10;49.30;;;;;;4896386;29;20968;-86
2022/12/13 03:32:32;;;;;;;25.90;10.77;;;-1.00;48.90;;;;;;4891382;29;20466;-85
2022/12/13 03:35:00;;;;;;;22.03;9.93;;;-1.00;48.50;;;;;;4900175;29;20452;-87
2022/12/13 03:37:27;;;;;;;22.57;10.77;;;-1.10;49.10;;;;;;4884223;29;20459;-85
2022/12/13 03:39:55;;;;;;;17.07;9.00;;;-1.10;49.20;;;;;;4929735;29;20757;-87
2022/12/13 03:42:22;;;;;;;25.93;11.43;;;-1.10;48.80;;;;;;4906368;29;20471;-86
2022/12/13 03:44:49;;;;;;;17.83;10.60;;;-1.10;48.80;;;;;;4910563;29;20467;-87
2022/12/13 03:47:16;;;;;;;15.70;9.30;;;-1.60;49.40;;;;;;4913193;29;20455;-84
2022/12/13 03:49:43;;;;;;;14.93;7.97;;;-1.50;50.00;;;;;;4888464;29;20462;-86
2022/12/13 03:52:11;;;;;;;21.50;9.70;;;-1.60;49.90;;;;;;4921178;29;20462;-85
2022/12/13 03:54:38;;;;;;;22.90;9.83;;;-1.40;49.90;;;;;;4885324;29;20482;-86
2022/12/13 03:57:05;;;;;;;26.33;11.73;;;-1.30;49.40;;;;;;4898185;29;20949;-87
2022/12/13 03:59:32;;;;;;;17.23;10.53;;;-1.10;49.00;;;;;;4869728;29;20466;-85
2022/12/13 04:01:59;;;;;;;18.80;8.70;;;-1.40;48.90;;;;;;4872635;29;20883;-85
2022/12/13 04:04:26;;;;;;;14.33;7.77;;;-1.60;49.80;;;;;;4884630;29;20483;-86
2022/12/13 04:06:53;;;;;;;16.30;9.60;;;-1.60;49.80;;;;;;4900211;29;20482;-86
2022/12/13 04:09:21;;;;;;;24.60;12.00;;;-1.90;49.50;;;;;;4904076;29;20467;-86
2022/12/13 04:14:34;;;;;;;20.30;10.10;;;-1.90;50.50;;;;;;4914348;29;20550;-86
2022/12/13 04:17:01;;;;;;;29.53;10.37;;;-1.70;50.10;;;;;;4864886;29;20509;-86
2022/12/13 04:19:28;;;;;;;19.60;9.57;;;-1.70;50.00;;;;;;4899537;29;20478;-85
2022/12/13 04:21:55;;;;;;;16.73;9.80;;;-1.50;49.70;;;;;;4893663;29;20454;-86
2022/12/13 04:24:24;;;;;;;16.07;8.23;;;-1.30;49.20;;;;;;4923276;29;20482;-86
2022/12/13 04:26:52;;;;;;;30.43;12.47;;;-1.20;48.80;;;;;;4932235;29;20542;-85
2022/12/13 04:29:20;;;;;;;18.00;10.30;;;-1.10;48.60;;;;;;4901880;29;20474;-88
2022/12/13 04:31:47;;;;;;;43.70;18.17;;;-1.30;48.30;;;;;;4909611;29;20995;-88
2022/12/13 04:34:14;;;;;;;52.90;28.57;;;-1.30;48.70;;;;;;4875965;29;20848;-85
2022/12/13 04:36:41;;;;;;;30.93;16.47;;;-1.20;48.10;;;;;;4893034;29;20491;-84
2022/12/13 04:39:08;;;;;;;22.80;10.53;;;-1.20;47.70;;;;;;4902198;29;20501;-85
2022/12/13 04:41:38;;;;;;;17.47;9.73;;;-1.20;47.90;;;;;;4916940;29;20459;-86
2022/12/13 04:44:07;;;;;;;17.23;10.10;;;-1.20;48.00;;;;;;4923949;29;20487;-86
2022/12/13 04:46:34;;;;;;;20.47;13.33;;;-1.40;48.30;;;;;;4892576;29;20451;-86
2022/12/13 04:49:01;;;;;;;14.07;8.40;;;-1.40;49.10;;;;;;4900830;29;20466;-86
2022/12/13 04:51:29;;;;;;;14.90;9.10;;;-1.30;48.10;;;;;;4933777;29;20961;-85
2022/12/13 04:53:56;;;;;;;18.53;10.07;;;-1.50;47.30;;;;;;4898543;29;20473;-87
2022/12/13 04:56:22;;;;;;;22.20;8.77;;;-1.80;47.80;;;;;;4894315;29;20553;-85
2022/12/13 04:58:51;;;;;;;24.47;9.60;;;-1.80;48.70;;;;;;4898366;29;20665;-86
2022/12/13 05:01:18;;;;;;;17.97;10.07;;;-1.70;48.90;;;;;;4907055;29;20549;-86
2022/12/13 05:03:45;;;;;;;13.17;6.57;;;-1.70;48.80;;;;;;4875746;29;20481;-85
2022/12/13 05:06:13;;;;;;;17.97;9.10;;;-1.90;48.80;;;;;;4923395;29;20444;-85
2022/12/13 05:08:41;;;;;;;21.43;8.87;;;-2.20;49.60;;;;;;4890350;29;20453;-85
2022/12/13 05:11:10;;;;;;;14.10;9.33;;;-2.20;49.60;;;;;;4916160;29;20468;-85
2022/12/13 05:13:37;;;;;;;20.00;10.20;;;-2.20;49.40;;;;;;4883936;29;21013;-85
2022/12/13 05:16:07;;;;;;;24.73;11.33;;;-2.10;49.60;;;;;;4903569;29;20523;-86
2022/12/13 05:18:36;;;;;;;29.50;11.00;;;-2.00;50.00;;;;;;4907071;29;20464;-86
2022/12/13 05:21:05;;;;;;;10.90;5.97;;;-1.90;50.00;;;;;;4901743;29;20466;-85
2022/12/13 05:23:32;;;;;;;20.50;11.10;;;-1.90;49.60;;;;;;4932306;28;20483;-85
2022/12/13 05:25:59;;;;;;;30.83;13.27;;;-1.90;49.60;;;;;;4869291;29;20451;-86
2022/12/13 05:28:27;;;;;;;29.73;9.67;;;-2.00;49.60;;;;;;4881134;29;20665;-84
2022/12/13 05:30:55;;;;;;;20.20;9.90;;;-2.00;49.30;;;;;;4899890;29;20467;-85
2022/12/13 05:33:24;;;;;;;20.57;9.50;;;-1.90;49.30;;;;;;4915822;29;20592;-85
2022/12/13 05:35:51;;;;;;;17.50;8.17;;;-1.80;48.80;;;;;;4906901;29;20523;-85
2022/12/13 05:38:18;;;;;;;14.00;8.60;;;-1.80;48.70;;;;;;4887054;29;20464;-81
2022/12/13 05:40:46;;;;;;;19.13;9.43;;;-1.90;48.20;;;;;;4909281;29;20452;-84
2022/12/13 05:43:13;;;;;;;23.23;9.83;;;-2.20;48.70;;;;;;4900452;29;20494;-86
2022/12/13 05:45:40;;;;;;;26.23;13.23;;;-2.40;49.20;;;;;;4918421;29;20455;-85
2022/12/13 05:48:07;;;;;;;19.70;11.07;;;-2.40;49.40;;;;;;4917903;29;20460;-83
2022/12/13 05:50:37;;;;;;;25.30;10.87;;;-2.30;49.80;;;;;;4933815;28;20467;-85
2022/12/13 05:53:04;;;;;;;15.97;10.73;;;-2.20;49.80;;;;;;4930048;28;20498;-85
2022/12/13 05:55:31;;;;;;;18.63;11.07;;;-2.10;49.50;;;;;;4874647;29;20462;-85
2022/12/13 05:57:58;;;;;;;16.90;8.67;;;-2.20;49.30;;;;;;4914245;29;20451;-85
2022/12/13 06:00:25;;;;;;;13.37;8.30;;;-2.10;49.40;;;;;;4884565;29;20656;-85
2022/12/13 06:02:52;;;;;;;20.63;9.90;;;-1.90;49.40;;;;;;4902267;29;20480;-85
2022/12/13 06:05:19;;;;;;;28.27;10.80;;;-1.90;48.90;;;;;;4907739;29;20458;-86
2022/12/13 06:07:48;;;;;;;19.37;11.30;;;-1.90;48.70;;;;;;4901414;29;20458;-86
2022/12/13 06:10:15;;;;;;;21.53;8.57;;;-1.70;48.50;;;;;;4902662;29;20456;-84
2022/12/13 06:12:42;;;;;;;16.57;10.10;;;-1.70;48.00;;;;;;4888403;29;20478;-83
2022/12/13 06:15:09;;;;;;;20.30;11.50;;;-1.70;48.00;;;;;;4933112;29;20471;-85
2022/12/13 06:17:37;;;;;;;12.37;6.23;;;-1.60;48.00;;;;;;4885655;29;20793;-85
2022/12/13 06:20:04;;;;;;;15.93;8.37;;;-1.90;47.90;;;;;;4905365;29;20451;-86
2022/12/13 06:22:32;;;;;;;20.97;12.40;;;-2.20;49.10;;;;;;4892643;29;20466;-85
2022/12/13 06:25:01;;;;;;;26.00;12.20;;;-2.40;49.30;;;;;;4911162;29;21021;-85
2022/12/13 06:27:28;;;;;;;30.47;13.03;;;-2.30;48.80;;;;;;4869743;29;20811;-85
2022/12/13 06:29:55;;;;;;;28.03;12.77;;;-2.70;48.80;;;;;;4869499;29;20451;-87
2022/12/13 06:32:22;;;;;;;39.13;14.20;;;-2.50;49.70;;;;;;4898724;29;20463;-86
2022/12/13 06:34:50;;;;;;;30.83;14.50;;;-2.30;49.10;;;;;;4929700;29;20501;-85
2022/12/13 06:37:16;;;;;;;33.47;17.23;;;-2.20;48.60;;;;;;4887234;29;20455;-84
2022/12/13 06:39:43;;;;;;;25.33;11.70;;;-2.20;48.20;;;;;;4877125;29;20984;-84
2022/12/13 06:42:17;;;;;;;34.33;16.80;;;-2.20;48.00;;;;;;4886536;29;20486;-85
2022/12/13 06:44:44;;;;;;;17.63;9.07;;;-2.20;48.10;;;;;;4876037;29;20476;-84
2022/12/13 06:47:11;;;;;;;24.90;14.07;;;-2.10;48.10;;;;;;4891447;29;20451;-84
2022/12/13 06:49:39;;;;;;;27.17;10.87;;;-2.00;47.80;;;;;;4898241;29;20482;-85
2022/12/13 06:52:09;;;;;;;24.30;10.97;;;-2.10;47.40;;;;;;4913388;29;20686;-84
2022/12/13 06:54:36;;;;;;;30.17;11.40;;;-2.10;48.00;;;;;;4902059;29;20474;-87
2022/12/13 06:57:03;;;;;;;16.67;8.87;;;-2.00;48.10;;;;;;4915380;29;20456;-85
2022/12/13 06:59:31;;;;;;;26.80;10.67;;;-2.00;48.10;;;;;;4914895;29;20459;-85
2022/12/13 07:01:59;;;;;;;18.67;9.13;;;-1.90;48.40;;;;;;4907346;29;20470;-87
2022/12/13 07:04:26;;;;;;;16.73;7.67;;;-1.90;48.00;;;;;;4892441;29;20508;-85
2022/12/13 07:06:53;;;;;;;13.70;8.27;;;-2.10;47.90;;;;;;4931838;28;20467;-86
2022/12/13 07:09:20;;;;;;;28.87;12.23;;;-2.60;48.70;;;;;;4880270;29;20517;-84
2022/12/13 07:11:47;;;;;;;19.57;10.20;;;-2.40;49.50;;;;;;4915644;29;20506;-85
2022/12/13 07:14:15;;;;;;;26.13;10.67;;;-2.20;49.00;;;;;;4893028;29;20996;-85
2022/12/13 07:16:43;;;;;;;24.73;13.07;;;-2.10;48.60;;;;;;4916897;29;20456;-84
2022/12/13 07:19:11;;;;;;;30.70;12.57;;;-2.00;48.50;;;;;;4914055;29;20462;-84
2022/12/13 07:21:38;;;;;;;24.53;11.47;;;-1.90;48.10;;;;;;4899819;29;20459;-85
2022/12/13 07:24:06;;;;;;;24.53;12.30;;;-1.90;47.60;;;;;;4903522;29;22155;-85
2022/12/13 07:26:35;;;;;;;15.63;11.30;;;-1.70;47.50;;;;;;4899189;29;20543;-83
2022/12/13 07:29:03;;;;;;;24.53;13.17;;;-1.70;47.40;;;;;;4886909;29;20450;-84
2022/12/13 07:31:30;;;;;;;34.07;12.30;;;-1.70;47.40;;;;;;4922040;29;20462;-84
2022/12/13 07:34:00;;;;;;;31.73;16.17;;;-1.90;47.40;;;;;;4899260;29;21045;-85
2022/12/13 07:36:27;;;;;;;33.70;14.53;;;-2.00;47.80;;;;;;4914805;29;20448;-85
2022/12/13 07:38:55;;;;;;;32.20;15.80;;;-2.10;47.90;;;;;;4890207;29;20467;-87
2022/12/13 07:41:22;;;;;;;26.80;15.27;;;-2.30;48.20;;;;;;4906302;29;20490;-86
2022/12/13 07:43:49;;;;;;;17.80;9.97;;;-2.40;48.50;;;;;;4915304;29;20513;-85
2022/12/13 07:46:16;;;;;;;24.53;15.27;;;-2.90;48.90;;;;;;4897809;29;21043;-84
2022/12/13 07:48:43;;;;;;;35.37;15.27;;;-2.70;49.70;;;;;;4889355;29;20460;-84
2022/12/13 07:51:12;;;;;;;21.90;13.47;;;-2.50;49.20;;;;;;4897525;29;20494;-85
2022/12/13 07:53:40;;;;;;;22.90;11.73;;;-2.30;49.20;;;;;;4902504;29;20490;-84
2022/12/13 07:56:10;;;;;;;19.47;10.40;;;-2.20;48.40;;;;;;4879865;29;20519;-85
2022/12/13 07:58:37;;;;;;;24.53;9.87;;;-2.00;48.30;;;;;;4911601;29;20455;-84
2022/12/13 08:01:07;;;;;;;21.43;11.50;;;-1.90;48.10;;;;;;4902918;29;20466;-88
2022/12/13 08:03:35;;;;;;;26.70;12.13;;;-1.80;48.00;;;;;;4909153;29;20782;-85
2022/12/13 08:06:03;;;;;;;22.47;12.40;;;-1.90;48.70;;;;;;4890125;29;21001;-84
2022/12/13 08:08:33;;;;;;;29.07;13.73;;;-1.70;48.40;;;;;;4875939;29;20496;-85
2022/12/13 08:11:01;;;;;;;22.97;13.00;;;-1.50;47.90;;;;;;4900332;29;20451;-83
2022/12/13 08:13:28;;;;;;;22.47;9.27;;;-1.40;47.40;;;;;;4910217;29;20530;-85
2022/12/13 08:16:00;;;;;;;24.63;13.03;;;-1.40;47.10;;;;;;4934054;29;20495;-85
2022/12/13 08:18:28;;;;;;;29.43;12.67;;;-1.60;47.80;;;;;;4892790;29;20459;-83
2022/12/13 08:20:58;;;;;;;26.63;14.40;;;-1.50;47.70;;;;;;4922393;29;20856;-84
2022/12/13 08:23:26;;;;;;;22.83;14.37;;;-1.50;47.80;;;;;;4879536;29;20861;-85
2022/12/13 08:25:54;;;;;;;40.97;11.90;;;-1.40;47.80;;;;;;4918754;29;20543;-84
2022/12/13 08:28:22;;;;;;;24.83;12.80;;;-1.30;47.30;;;;;;4885586;29;20542;-85
2022/12/13 08:30:50;;;;;;;21.40;11.63;;;-1.20;47.00;;;;;;4904091;29;20456;-85
2022/12/13 08:33:17;;;;;;;22.50;11.53;;;-1.20;46.80;;;;;;4875506;29;20483;-84
2022/12/13 08:35:45;;;;;;;24.23;11.87;;;-1.20;46.80;;;;;;4909708;29;20990;-85
2022/12/13 08:38:13;;;;;;;29.80;10.67;;;-1.20;46.80;;;;;;4892576;29;20470;-84
2022/12/13 08:40:40;;;;;;;15.13;10.00;;;-1.20;46.70;;;;;;4919053;29;20467;-87
2022/12/13 08:43:08;;;;;;;21.07;11.10;;;-1.30;47.10;;;;;;4892800;29;21008;-87
2022/12/13 08:45:36;;;;;;;21.47;9.80;;;-1.50;48.10;;;;;;4903263;29;20530;-84
2022/12/13 08:48:03;;;;;;;18.67;10.10;;;-1.50;47.90;;;;;;4891202;29;20893;-82
2022/12/13 08:50:30;;;;;;;23.43;11.23;;;-1.50;47.90;;;;;;4902706;29;20452;-85
2022/12/13 08:52:58;;;;;;;17.67;10.57;;;-1.60;48.30;;;;;;4893339;29;20507;-83
2022/12/13 08:55:25;;;;;;;20.57;11.93;;;-1.60;48.50;;;;;;4919290;29;20461;-85
2022/12/13 08:57:52;;;;;;;15.37;9.50;;;-1.60;48.70;;;;;;4906485;29;20452;-82
2022/12/13 09:00:20;;;;;;;19.63;8.70;;;-1.40;48.50;;;;;;4894988;29;20461;-87
2022/12/13 09:02:48;;;;;;;25.57;10.60;;;-1.30;48.10;;;;;;4910465;29;20580;-85
2022/12/13 09:05:15;;;;;;;21.33;11.60;;;-1.20;47.90;;;;;;4881168;29;20489;-85
2022/12/13 09:07:42;;;;;;;24.13;12.97;;;-1.20;47.80;;;;;;4875644;29;20570;-83
2022/12/13 09:10:11;;;;;;;20.50;10.23;;;-1.20;47.80;;;;;;4908558;29;20734;-84
2022/12/13 09:12:41;;;;;;;18.73;10.40;;;-1.10;47.80;;;;;;4895565;29;20463;-85
2022/12/13 09:15:09;;;;;;;17.40;10.87;;;-1.10;47.80;;;;;;4909566;29;20452;-85
2022/12/13 09:17:38;;;;;;;24.40;11.27;;;-1.00;47.70;;;;;;4908512;29;20456;-84
2022/12/13 09:20:08;;;;;;;21.43;11.10;;;-0.90;47.60;;;;;;4887392;29;20474;-85
2022/12/13 09:22:35;;;;;;;15.63;9.80;;;-1.00;47.70;;;;;;4917236;29;20452;-85
2022/12/13 09:25:02;;;;;;;25.13;14.17;;;-1.00;47.80;;;;;;4917969;29;20500;-85
2022/12/13 09:27:29;;;;;;;26.50;13.93;;;-1.10;48.70;;;;;;4893889;29;20451;-85
2022/12/13 09:29:56;;;;;;;38.30;14.10;;;-1.00;49.30;;;;;;4907048;29;20470;-85
2022/12/13 09:32:24;;;;;;;23.57;14.10;;;-1.00;48.30;;;;;;4886607;29;20562;-84
2022/12/13 09:34:52;;;;;;;19.50;12.30;;;-0.90;48.30;;;;;;4932447;28;20455;-85
2022/12/13 09:37:19;;;;;;;36.77;14.10;;;-0.80;48.30;;;;;;4898448;29;20479;-85
2022/12/13 09:39:47;;;;;;;26.10;13.13;;;-0.80;48.20;;;;;;4931544;29;20521;-85
2022/12/13 09:42:21;;;;;;;35.20;12.73;;;-0.70;48.20;;;;;;4919300;29;20475;-86
2022/12/13 09:44:53;;;;;;;26.70;12.87;;;-0.60;48.20;;;;;;4901513;29;20475;-85
2022/12/13 09:47:27;;;;;;;24.53;11.30;;;-0.60;48.00;;;;;;4888232;29;20440;-85
2022/12/13 09:49:55;;;;;;;21.80;11.47;;;-0.60;47.90;;;;;;4893779;29;20991;-87
2022/12/13 09:52:24;;;;;;;29.00;13.17;;;-0.60;48.10;;;;;;4892721;29;20452;-85
2022/12/13 09:54:54;;;;;;;28.90;13.80;;;-0.70;48.90;;;;;;4872265;29;20440;-84
2022/12/13 09:57:25;;;;;;;32.53;16.50;;;-0.60;48.40;;;;;;4918195;29;20537;-84
2022/12/13 09:59:53;;;;;;;27.43;15.13;;;-0.60;48.50;;;;;;4909964;29;20451;-84
2022/12/13 10:02:25;;;;;;;32.83;17.10;;;-0.70;48.50;;;;;;4901581;29;20507;-84
2022/12/13 10:04:52;;;;;;;35.27;16.33;;;-0.60;49.50;;;;;;4934249;28;20463;-83
2022/12/13 10:07:23;;;;;;;38.17;15.50;;;-0.70;50.10;;;;;;4900076;29;21053;-86
2022/12/13 10:09:58;;;;;;;32.37;15.10;;;-0.60;50.10;;;;;;4902568;29;21130;-85
2022/12/13 10:12:25;;;;;;;23.17;12.47;;;-0.50;49.70;;;;;;4884702;29;20451;-85
2022/12/13 10:14:56;;;;;;;38.20;17.80;;;-0.40;49.50;;;;;;4882174;29;20459;-85
2022/12/13 10:17:27;;;;;;;39.63;14.10;;;-0.50;50.40;;;;;;4873587;29;20455;-86
2022/12/13 10:19:54;;;;;;;30.93;15.80;;;-0.50;51.10;;;;;;4894639;29;20535;-85
2022/12/13 10:22:22;;;;;;;21.83;12.90;;;-0.30;50.80;;;;;;4892097;29;20451;-85
2022/12/13 10:24:53;;;;;;;20.73;11.20;;;-0.20;51.00;;;;;;4909504;29;20995;-85
2022/12/13 10:27:26;;;;;;;26.83;12.67;;;-0.10;50.90;;;;;;4930745;28;20463;-85
2022/12/13 10:30:01;;;;;;;33.87;13.10;;;-0.10;51.10;;;;;;4886095;29;20550;-85
2022/12/13 10:32:32;;;;;;;31.53;12.27;;;0.00;50.80;;;;;;4900297;29;20458;-86
2022/12/13 10:34:59;;;;;;;32.90;12.40;;;0.10;50.70;;;;;;4899154;29;20449;-85
2022/12/13 10:37:30;;;;;;;25.63;12.33;;;0.10;50.90;;;;;;4883350;29;20617;-87
2022/12/13 10:39:57;;;;;;;25.30;11.33;;;0.10;50.80;;;;;;4930144;29;20471;-85
2022/12/13 10:42:25;;;;;;;29.60;10.77;;;0.10;51.20;;;;;;4901552;29;20467;-87
2022/12/13 10:45:15;;;;;;;20.33;12.17;;;0.00;51.50;;;;;;4874576;29;20524;-85
2022/12/13 10:47:45;;;;;;;17.90;9.80;;;-0.20;52.80;;;;;;4909635;29;20458;-85
2022/12/13 10:50:24;;;;;;;22.93;12.27;;;-0.10;53.20;;;;;;4904525;29;20466;-85
2022/12/13 10:52:54;;;;;;;13.60;10.20;;;0.00;52.90;;;;;;4910392;29;20487;-86
2022/12/13 10:55:27;;;;;;;21.13;10.50;;;0.00;52.60;;;;;;4920553;29;20465;-86
2022/12/13 10:57:57;;;;;;;23.97;12.33;;;0.10;52.70;;;;;;4892937;29;20452;-85
2022/12/13 11:00:39;;;;;;;15.73;6.40;;;0.10;52.10;;;;;;4889323;29;22096;-85
2022/12/13 11:03:09;;;;;;;20.00;13.80;;;-0.10;52.70;;;;;;4906837;29;20593;-85
2022/12/13 11:05:39;;;;;;;26.03;12.67;;;-0.20;53.40;;;;;;4872532;29;20544;-85
2022/12/13 11:08:15;;;;;;;22.87;12.80;;;0.00;53.70;;;;;;4900139;29;20832;-85
2022/12/13 11:10:43;;;;;;;20.63;12.37;;;0.10;53.20;;;;;;4909692;29;20454;-86
2022/12/13 11:13:24;;;;;;;20.63;9.83;;;0.10;53.30;;;;;;4896827;29;20463;-86
2022/12/13 11:15:55;;;;;;;23.90;12.53;;;0.40;53.40;;;;;;4906550;29;20459;-86
2022/12/13 11:18:24;;;;;;;28.87;13.00;;;0.70;52.90;;;;;;4868934;29;20470;-86
2022/12/13 11:20:56;;;;;;;19.40;10.70;;;0.80;52.20;;;;;;4897014;29;20470;-87
2022/12/13 11:23:30;;;;;;;26.93;11.60;;;0.80;52.30;;;;;;4915312;29;20466;-86
2022/12/13 11:26:00;;;;;;;18.33;7.83;;;0.70;52.50;;;;;;4909777;29;20474;-86
2022/12/13 11:29:01;;;;;;;17.30;11.10;;;0.50;52.50;;;;;;4913347;29;20468;-86
2022/12/13 11:31:36;;;;;;;33.23;15.03;;;0.40;53.20;;;;;;4915517;29;20479;-86
2022/12/13 11:34:11;;;;;;;24.67;11.07;;;0.60;53.30;;;;;;4906027;29;20514;-86
2022/12/13 11:36:47;;;;;;;27.57;12.80;;;0.80;53.00;;;;;;4887226;29;21193;-86
2022/12/13 11:39:21;;;;;;;23.50;11.33;;;0.90;52.30;;;;;;4886114;29;20566;-86
2022/12/13 11:41:54;;;;;;;23.10;9.93;;;0.80;52.80;;;;;;4931443;28;20813;-86
2022/12/13 11:44:28;;;;;;;24.30;11.37;;;0.90;52.50;;;;;;4917896;29;20475;-88
2022/12/13 11:46:59;;;;;;;23.33;10.80;;;0.80;52.50;;;;;;4930405;29;20451;-86
2022/12/13 11:49:36;;;;;;;22.73;10.77;;;0.90;53.10;;;;;;4921179;29;20451;-86
2022/12/13 11:52:10;;;;;;;26.30;11.77;;;1.10;52.90;;;;;;4883812;29;20460;-87
2022/12/13 11:54:48;;;;;;;18.33;10.23;;;1.10;52.40;;;;;;4932083;28;20486;-87
2022/12/13 11:57:29;;;;;;;27.30;11.40;;;1.30;52.40;;;;;;4913658;29;20462;-87
2022/12/13 12:00:04;;;;;;;22.13;10.90;;;1.40;52.20;;;;;;4890932;29;20459;-85
2022/12/13 12:02:47;;;;;;;22.43;12.60;;;1.50;51.80;;;;;;4899013;29;20922;-88
2022/12/13 12:05:27;;;;;;;19.93;12.00;;;1.50;52.00;;;;;;4920864;29;20847;-87
2022/12/13 12:07:58;;;;;;;19.63;9.17;;;1.60;51.90;;;;;;4914103;29;20513;-86
2022/12/13 12:10:34;;;;;;;19.83;10.30;;;1.80;51.50;;;;;;4912430;29;20456;-87
2022/12/13 12:13:07;;;;;;;11.00;6.40;;;1.50;51.60;;;;;;4913470;29;20557;-86
2022/12/13 12:15:40;;;;;;;25.40;10.50;;;1.30;51.90;;;;;;4914633;29;20460;-86
2022/12/13 12:18:13;;;;;;;30.03;12.27;;;1.20;52.30;;;;;;4914410;29;20494;-86
2022/12/13 12:20:50;;;;;;;22.47;11.17;;;1.60;52.40;;;;;;4881531;29;20487;-86
2022/12/13 12:23:26;;;;;;;18.23;10.20;;;1.90;51.70;;;;;;4910553;29;20853;-87
2022/12/13 12:26:01;;;;;;;20.90;10.70;;;2.10;51.10;;;;;;4914717;29;20577;-86
2022/12/13 12:28:38;;;;;;;21.63;12.67;;;2.30;50.90;;;;;;4912729;29;20843;-86
2022/12/13 12:31:15;;;;;;;15.50;8.90;;;2.50;50.80;;;;;;4911026;29;20557;-84
2022/12/13 12:33:51;;;;;;;20.30;10.80;;;2.60;50.20;;;;;;4891501;29;20662;-87
2022/12/13 12:36:41;;;;;;;22.10;11.10;;;2.60;50.10;;;;;;4874170;29;20447;-86
2022/12/13 12:39:30;;;;;;;17.73;10.10;;;2.80;50.00;;;;;;4907986;29;20475;-86
2022/12/13 12:42:19;;;;;;;18.50;10.03;;;2.90;49.60;;;;;;4910717;29;20980;-86
2022/12/13 12:45:00;;;;;;;23.87;10.73;;;3.10;49.10;;;;;;4877421;29;20487;-87
2022/12/13 12:47:37;;;;;;;15.13;8.67;;;3.50;48.50;;;;;;4909175;29;20553;-87
2022/12/13 12:50:34;;;;;;;16.53;9.57;;;3.40;47.20;;;;;;4917657;29;20459;-86
2022/12/13 12:53:11;;;;;;;26.20;13.50;;;3.40;48.20;;;;;;4894384;29;21023;-88